createdAt,value
2018-04-10T00:01:37.683Z,60.79
2018-04-10T00:04:04.024Z,60.60
2018-04-10T00:06:30.421Z,60.13
2018-04-10T00:08:56.916Z,59.84
2018-04-10T00:11:23.302Z,59.64
2018-04-10T00:13:49.746Z,59.50
2018-04-10T00:16:16.123Z,59.27
2018-04-10T00:18:47.807Z,58.57
2018-04-10T00:21:14.172Z,59.17
2018-04-10T00:23:40.539Z,59.65
2018-04-10T00:26:06.847Z,59.44
2018-04-10T00:28:33.287Z,59.89
2018-04-10T00:30:59.632Z,59.30
2018-04-10T00:33:26.040Z,59.31
2018-04-10T00:35:52.482Z,60.24
2018-04-10T00:38:18.919Z,60.26
2018-04-10T00:40:45.222Z,59.57
2018-04-10T00:43:11.628Z,59.87
2018-04-10T00:45:38.014Z,59.98
2018-04-10T00:48:04.416Z,59.82
2018-04-10T00:50:30.837Z,59.15
2018-04-10T00:53:09.518Z,60.38
2018-04-10T00:55:35.863Z,59.11
2018-04-10T00:58:02.228Z,59.35
2018-04-10T01:00:28.601Z,60.51
2018-04-10T01:02:54.955Z,59.26
2018-04-10T01:05:21.371Z,59.12
2018-04-10T01:07:47.695Z,59.41
2018-04-10T01:10:14.173Z,59.02
2018-04-10T01:12:40.572Z,59.75
2018-04-10T01:15:06.912Z,60.42
2018-04-10T01:17:33.303Z,59.53
2018-04-10T01:20:01.683Z,60.03
2018-04-10T01:22:27.997Z,60.63
2018-04-10T01:24:54.440Z,59.75
2018-04-10T01:27:20.859Z,59.87
2018-04-10T01:29:48.319Z,59.83
2018-04-10T01:32:14.740Z,59.74
2018-04-10T01:34:41.059Z,60.05
2018-04-10T01:37:07.360Z,60.90
2018-04-10T01:39:34.816Z,60.56
2018-04-10T01:42:01.168Z,60.20
2018-04-10T01:44:27.584Z,60.20
2018-04-10T01:46:53.971Z,60.91
2018-04-10T01:49:20.497Z,60.62
2018-04-10T01:51:46.895Z,60.75
2018-04-10T01:54:13.322Z,61.35
2018-04-10T01:56:39.659Z,61.22
2018-04-10T01:59:06.687Z,62.98
2018-04-10T02:01:33.052Z,62.65
2018-04-10T02:03:59.476Z,64.16
2018-04-10T02:06:25.800Z,66.20
2018-04-10T02:08:52.172Z,64.39
2018-04-10T02:11:18.713Z,64.13
2018-04-10T02:13:45.175Z,63.44
2018-04-10T02:16:11.628Z,63.37
2018-04-10T02:18:38.056Z,62.92
2018-04-10T02:21:04.411Z,63.97
2018-04-10T02:23:30.787Z,62.87
2018-04-10T02:25:57.112Z,63.06
2018-04-10T02:28:23.488Z,63.60
2018-04-10T02:30:49.877Z,63.24
2018-04-10T02:33:16.192Z,63.26
2018-04-10T02:35:42.519Z,63.09
2018-04-10T02:38:08.844Z,65.04
2018-04-10T02:40:35.202Z,66.62
2018-04-10T02:43:01.613Z,70.33
2018-04-10T02:45:27.938Z,71.67
2018-04-10T02:47:54.343Z,72.53
2018-04-10T02:50:20.726Z,73.45
2018-04-10T02:52:47.133Z,74.60
2018-04-10T02:55:13.531Z,75.41
2018-04-10T02:57:39.857Z,75.92
2018-04-10T03:00:08.281Z,75.17
2018-04-10T03:02:34.658Z,76.23
2018-04-10T03:05:01.090Z,75.82
2018-04-10T03:07:27.622Z,76.98
2018-04-10T03:09:54.184Z,76.67
2018-04-10T03:12:20.525Z,75.44
2018-04-10T03:14:46.915Z,76.99
2018-04-10T03:17:13.344Z,76.39
2018-04-10T03:19:39.739Z,76.54
2018-04-10T03:22:06.096Z,76.28
2018-04-10T03:24:32.506Z,76.23
2018-04-10T03:26:58.891Z,76.43
2018-04-10T03:29:25.394Z,76.17
2018-04-10T03:31:51.839Z,76.81
2018-04-10T03:34:18.150Z,76.41
2018-04-10T03:36:44.597Z,75.38
2018-04-10T03:39:10.975Z,78.00
2018-04-10T03:41:37.322Z,76.46
2018-04-10T03:44:03.659Z,77.56
2018-04-10T03:46:30.052Z,79.35
2018-04-10T03:48:57.515Z,81.85
2018-04-10T03:51:23.958Z,81.05
2018-04-10T03:53:50.406Z,82.65
2018-04-10T03:56:16.743Z,81.63
2018-04-10T03:58:43.210Z,82.76
2018-04-10T04:01:09.655Z,82.90
2018-04-10T04:03:36.060Z,82.53
2018-04-10T04:06:02.446Z,83.60
2018-04-10T04:08:30.931Z,83.56
2018-04-10T04:10:57.263Z,82.53
2018-04-10T04:13:23.585Z,82.49
2018-04-10T04:15:50.013Z,78.24
2018-04-10T04:18:28.577Z,77.88
2018-04-10T04:21:07.301Z,76.02
2018-04-10T04:23:33.693Z,75.18
2018-04-10T04:26:00.150Z,73.23
2018-04-10T04:28:26.615Z,71.00
2018-04-10T04:30:52.996Z,69.92
2018-04-10T04:33:19.339Z,67.43
2018-04-10T04:35:45.749Z,63.90
2018-04-10T04:38:12.076Z,63.87
2018-04-10T04:40:38.468Z,64.07
2018-04-10T04:43:04.907Z,61.62
2018-04-10T04:45:31.416Z,60.35
2018-04-10T04:47:57.803Z,59.68
2018-04-10T04:50:24.321Z,57.60
2018-04-10T04:52:50.822Z,55.49
2018-04-10T04:55:17.251Z,54.95
2018-04-10T04:57:43.687Z,54.71
2018-04-10T05:00:10.102Z,52.75
2018-04-10T05:02:36.461Z,51.96
2018-04-10T05:05:02.934Z,52.77
2018-04-10T05:07:29.314Z,47.81
2018-04-10T05:09:55.748Z,50.34
2018-04-10T05:12:22.202Z,51.73
2018-04-10T05:14:48.570Z,52.03
2018-04-10T05:17:14.981Z,53.23
2018-04-10T05:19:41.501Z,54.79
2018-04-10T05:22:07.860Z,55.07
2018-04-10T05:24:34.224Z,52.20
2018-04-10T05:27:00.837Z,52.84
2018-04-10T05:29:27.207Z,51.68
2018-04-10T05:31:53.571Z,50.94
2018-04-10T05:34:19.977Z,49.25
2018-04-10T05:36:46.333Z,50.87
2018-04-10T05:39:12.811Z,49.26
2018-04-10T05:41:39.198Z,51.71
2018-04-10T05:44:05.566Z,47.02
2018-04-10T05:46:31.964Z,46.47
2018-04-10T05:48:58.479Z,48.76
2018-04-10T05:51:24.862Z,51.00
2018-04-10T05:53:51.297Z,50.01
2018-04-10T05:56:17.777Z,51.47
2018-04-10T05:58:44.252Z,51.74
2018-04-10T06:01:10.647Z,49.29
2018-04-10T06:03:37.115Z,49.30
2018-04-10T06:06:03.568Z,49.79
2018-04-10T06:08:31.075Z,51.39
2018-04-10T06:10:57.566Z,49.61
2018-04-10T06:13:24.041Z,48.27
2018-04-10T06:15:50.429Z,53.59
2018-04-10T06:18:16.939Z,54.32
2018-04-10T06:20:43.458Z,52.84
2018-04-10T06:23:09.856Z,50.11
2018-04-10T06:25:36.253Z,48.96
2018-04-10T06:28:02.659Z,46.81
2018-04-10T06:30:29.054Z,47.67
2018-04-10T06:32:55.719Z,48.99
2018-04-10T06:35:22.064Z,48.68
2018-04-10T06:37:48.403Z,48.34
2018-04-10T06:40:14.856Z,48.33
2018-04-10T06:42:41.249Z,49.08
2018-04-10T06:45:07.656Z,49.90
2018-04-10T06:47:34.492Z,48.96
2018-04-10T06:50:00.903Z,47.31
2018-04-10T06:52:27.334Z,49.70
2018-04-10T06:54:53.840Z,46.86
2018-04-10T06:57:20.198Z,46.62
2018-04-10T06:59:46.755Z,48.55
2018-04-10T07:02:13.216Z,49.47
2018-04-10T07:04:39.624Z,49.72
2018-04-10T07:07:06.072Z,52.04
2018-04-10T07:09:32.587Z,52.89
2018-04-10T07:11:59.180Z,55.91
2018-04-10T07:14:25.654Z,52.37
2018-04-10T07:16:52.045Z,51.24
2018-04-10T07:19:18.470Z,48.74
2018-04-10T07:21:44.821Z,47.42
2018-04-10T07:24:11.353Z,47.79
2018-04-10T07:26:37.775Z,50.52
2018-04-10T07:29:04.235Z,51.23
2018-04-10T07:31:30.661Z,51.45
2018-04-10T07:33:57.101Z,48.46
2018-04-10T07:36:23.538Z,49.92
2018-04-10T07:38:50.055Z,50.24
2018-04-10T07:41:16.554Z,48.37
2018-04-10T07:43:42.914Z,47.80
2018-04-10T07:46:09.273Z,50.72
2018-04-10T07:48:35.716Z,47.59
2018-04-10T07:51:02.043Z,45.19
2018-04-10T07:53:28.453Z,45.83
2018-04-10T07:55:54.842Z,49.17
2018-04-10T07:58:21.196Z,42.28
2018-04-10T08:00:47.736Z,41.83
2018-04-10T08:03:14.107Z,42.68
2018-04-10T08:05:40.569Z,42.55
2018-04-10T08:08:07.055Z,43.27
2018-04-10T08:10:33.562Z,41.78
2018-04-10T08:13:00.036Z,43.09
2018-04-10T08:15:26.577Z,41.74
2018-04-10T08:17:52.999Z,44.41
2018-04-10T08:20:19.417Z,41.82
2018-04-10T08:22:45.915Z,42.57
2018-04-10T08:25:12.418Z,35.25
2018-04-10T08:27:38.842Z,34.30
2018-04-10T08:30:05.392Z,34.08
2018-04-10T08:32:31.712Z,35.09
2018-04-10T08:34:58.217Z,35.00
2018-04-10T08:37:25.370Z,32.35
2018-04-10T08:39:52.098Z,28.80
2018-04-10T08:42:18.693Z,31.61
2018-04-10T08:44:45.164Z,30.35
2018-04-10T08:47:11.787Z,29.58
2018-04-10T08:49:38.504Z,30.82
2018-04-10T08:52:05.237Z,30.96
2018-04-10T08:54:31.809Z,30.94
2018-04-10T08:56:58.293Z,29.89
2018-04-10T08:59:24.912Z,27.35
2018-04-10T09:01:51.364Z,29.30
2018-04-10T09:04:17.792Z,30.99
2018-04-10T09:06:44.224Z,27.72
2018-04-10T09:09:10.724Z,29.66
2018-04-10T09:11:37.308Z,30.01
2018-04-10T09:14:04.009Z,28.21
2018-04-10T09:16:30.459Z,30.81
2018-04-10T09:18:57.003Z,29.90
2018-04-10T09:21:23.722Z,27.18
2018-04-10T09:23:50.257Z,31.27
2018-04-10T09:26:18.794Z,27.11
2018-04-10T09:28:45.707Z,28.87
2018-04-10T09:31:12.120Z,25.63
2018-04-10T09:33:38.559Z,25.98
2018-04-10T09:36:05.044Z,26.15
2018-04-10T09:38:31.488Z,27.99
2018-04-10T09:40:57.989Z,24.80
2018-04-10T09:43:24.436Z,23.51
2018-04-10T09:45:50.955Z,25.66
2018-04-10T09:48:17.391Z,26.59
2018-04-10T09:50:44.186Z,25.98
2018-04-10T09:53:10.794Z,26.22
2018-04-10T09:55:37.350Z,28.71
2018-04-10T09:58:03.726Z,26.06
2018-04-10T10:00:36.249Z,24.00
2018-04-10T10:03:02.673Z,26.97
2018-04-10T10:05:29.110Z,26.26
2018-04-10T10:07:56.338Z,24.39
2018-04-10T10:10:23.013Z,25.24
2018-04-10T10:12:49.775Z,25.94
2018-04-10T10:15:16.182Z,26.00
2018-04-10T10:17:42.690Z,24.64
2018-04-10T10:20:09.277Z,24.05
2018-04-10T10:22:35.676Z,23.64
2018-04-10T10:25:02.113Z,24.18
2018-04-10T10:27:28.564Z,24.50
2018-04-10T10:29:54.985Z,25.07
2018-04-10T10:32:21.446Z,25.17
2018-04-10T10:34:48.051Z,26.55
2018-04-10T10:37:14.684Z,24.05
2018-04-10T10:39:41.111Z,22.94
2018-04-10T10:42:07.506Z,24.10
2018-04-10T10:44:33.962Z,23.42
2018-04-10T10:47:00.341Z,21.86
2018-04-10T10:49:26.814Z,23.95
2018-04-10T10:51:53.186Z,22.22
2018-04-10T10:54:19.584Z,24.27
2018-04-10T10:56:46.034Z,23.73
2018-04-10T10:59:12.521Z,25.77
2018-04-10T11:01:38.956Z,23.08
2018-04-10T11:04:05.355Z,24.43
2018-04-10T11:06:31.775Z,22.83
2018-04-10T11:08:58.168Z,24.61
2018-04-10T11:11:24.580Z,23.59
2018-04-10T11:13:51.021Z,21.93
2018-04-10T11:16:17.509Z,23.08
2018-04-10T11:18:43.948Z,23.17
2018-04-10T11:21:10.445Z,24.96
2018-04-10T11:23:36.952Z,23.68
2018-04-10T11:26:03.553Z,22.14
2018-04-10T11:28:30.006Z,24.34
2018-04-10T11:30:56.423Z,27.79
2018-04-10T11:33:22.875Z,21.36
2018-04-10T11:35:49.357Z,25.23
2018-04-10T11:38:15.749Z,23.23
2018-04-10T11:40:42.219Z,22.85
2018-04-10T11:43:08.746Z,26.12
2018-04-10T11:45:35.105Z,26.86
2018-04-10T11:48:01.518Z,21.66
2018-04-10T11:50:28.087Z,22.19
2018-04-10T11:52:54.471Z,25.72
2018-04-10T11:55:20.867Z,21.71
2018-04-10T11:57:47.224Z,23.77
2018-04-10T12:00:13.783Z,23.63
2018-04-10T12:02:40.225Z,23.03
2018-04-10T12:05:06.610Z,23.68
2018-04-10T12:07:33.134Z,25.56
2018-04-10T12:09:59.595Z,27.20
2018-04-10T12:12:26.052Z,24.97
2018-04-10T12:14:52.440Z,24.23
2018-04-10T12:17:18.846Z,26.68
2018-04-10T12:19:45.406Z,24.30
2018-04-10T12:22:11.854Z,22.79
2018-04-10T12:24:38.214Z,25.34
2018-04-10T12:27:04.728Z,22.00
2018-04-10T12:29:31.171Z,24.98
2018-04-10T12:31:57.592Z,26.63
2018-04-10T12:34:24.109Z,22.90
2018-04-10T12:36:50.544Z,21.93
2018-04-10T12:39:18.011Z,24.99
2018-04-10T12:41:44.691Z,24.11
2018-04-10T12:44:11.133Z,26.30
2018-04-10T12:46:37.557Z,28.57
2018-04-10T12:49:04.148Z,22.54
2018-04-10T12:51:30.663Z,24.50
2018-04-10T12:53:57.116Z,22.39
2018-04-10T12:56:23.524Z,24.62
2018-04-10T12:58:50.067Z,25.44
2018-04-10T13:01:16.580Z,26.67
2018-04-10T13:03:43.059Z,25.00
2018-04-10T13:06:10.053Z,25.41
2018-04-10T13:08:36.962Z,24.08
2018-04-10T13:11:03.434Z,23.98
2018-04-10T13:13:30.826Z,26.72
2018-04-10T13:15:57.301Z,24.60
2018-04-10T13:18:23.827Z,26.24
2018-04-10T13:20:50.428Z,24.12
2018-04-10T13:23:16.940Z,27.72
2018-04-10T13:25:43.343Z,26.54
2018-04-10T13:28:09.696Z,26.48
2018-04-10T13:30:36.241Z,24.87
2018-04-10T13:33:02.700Z,23.71
2018-04-10T13:35:29.136Z,24.54
2018-04-10T13:37:55.564Z,26.65
2018-04-10T13:40:22.296Z,23.69
2018-04-10T13:42:48.727Z,25.51
2018-04-10T13:45:15.213Z,25.85
2018-04-10T13:47:41.666Z,23.89
2018-04-10T13:50:08.055Z,24.46
2018-04-10T13:52:34.459Z,26.35
2018-04-10T13:55:01.399Z,28.74
2018-04-10T13:57:28.505Z,23.77
2018-04-10T13:59:55.153Z,26.22
2018-04-10T14:02:21.699Z,26.58
2018-04-10T14:04:48.277Z,26.74
2018-04-10T14:07:14.780Z,26.77
2018-04-10T14:09:42.218Z,25.86
2018-04-10T14:12:08.689Z,27.08
2018-04-10T14:14:35.180Z,26.26
2018-04-10T14:17:01.769Z,26.90
2018-04-10T14:19:28.264Z,25.50
2018-04-10T14:21:54.851Z,26.28
2018-04-10T14:24:21.399Z,27.70
2018-04-10T14:26:47.885Z,26.55
2018-04-10T14:29:14.430Z,26.57
2018-04-10T14:31:41.456Z,27.27
2018-04-10T14:34:07.994Z,26.96
2018-04-10T14:36:34.567Z,28.60
2018-04-10T14:39:01.024Z,27.22
2018-04-10T14:41:27.501Z,27.54
2018-04-10T14:43:54.005Z,26.95
2018-04-10T14:46:20.519Z,27.31
2018-04-10T14:48:46.928Z,28.60
2018-04-10T14:51:13.473Z,27.86
2018-04-10T14:53:40.003Z,26.74
2018-04-10T14:56:06.536Z,27.74
2018-04-10T14:58:33.010Z,29.12
2018-04-10T15:00:59.575Z,29.64
2018-04-10T15:03:26.145Z,26.72
2018-04-10T15:05:52.574Z,28.14
2018-04-10T15:08:19.073Z,25.79
2018-04-10T15:10:45.610Z,26.78
2018-04-10T15:13:12.002Z,28.14
2018-04-10T15:15:38.528Z,30.07
2018-04-10T15:18:05.021Z,26.29
2018-04-10T15:20:31.574Z,28.25
2018-04-10T15:22:58.119Z,25.65
2018-04-10T15:25:24.479Z,29.15
2018-04-10T15:27:50.957Z,29.06
2018-04-10T15:30:17.446Z,27.31
2018-04-10T15:32:43.881Z,27.99
2018-04-10T15:35:10.261Z,27.20
2018-04-10T15:37:36.716Z,27.95
2018-04-10T15:40:03.247Z,28.24
2018-04-10T15:42:29.637Z,27.57
2018-04-10T15:44:56.166Z,27.86
2018-04-10T15:47:22.588Z,29.20
2018-04-10T15:49:49.077Z,28.65
2018-04-10T15:52:15.574Z,29.04
2018-04-10T15:54:42.316Z,29.58
2018-04-10T15:57:08.674Z,28.22
2018-04-10T15:59:35.437Z,29.42
2018-04-10T16:02:02.096Z,29.52
2018-04-10T16:04:28.523Z,30.03
2018-04-10T16:06:55.078Z,30.92
2018-04-10T16:09:21.666Z,30.28
2018-04-10T16:11:48.437Z,30.74
2018-04-10T16:14:15.028Z,31.51
2018-04-10T16:16:41.568Z,31.80
2018-04-10T16:19:08.961Z,33.42
2018-04-10T16:21:35.531Z,31.32
2018-04-10T16:24:05.538Z,31.22
2018-04-10T16:26:42.928Z,32.28
2018-04-10T16:29:12.940Z,30.98
2018-04-10T16:31:44.005Z,31.90
2018-04-10T16:34:10.584Z,32.66
2018-04-10T16:36:38.278Z,32.61
2018-04-10T16:39:05.944Z,33.33
2018-04-10T16:41:33.158Z,31.72
2018-04-10T16:44:00.361Z,32.70
2018-04-10T16:46:27.034Z,32.59
2018-04-10T16:48:53.635Z,32.02
2018-04-10T16:51:20.150Z,32.25
2018-04-10T16:53:46.666Z,32.94
2018-04-10T16:56:13.289Z,31.41
2018-04-10T16:58:39.949Z,31.80
2018-04-10T17:01:06.737Z,31.99
2018-04-10T17:03:33.673Z,32.11
2018-04-10T17:06:00.202Z,31.59
2018-04-10T17:08:26.633Z,32.03
2018-04-10T17:10:54.209Z,32.54
2018-04-10T17:13:20.830Z,33.66
2018-04-10T17:15:47.690Z,33.21
2018-04-10T17:18:14.180Z,32.86
2018-04-10T17:20:40.844Z,33.65
2018-04-10T17:23:07.514Z,34.14
2018-04-10T17:25:39.922Z,33.71
2018-04-10T17:28:08.065Z,34.41
2018-04-10T17:30:35.036Z,35.32
2018-04-10T17:33:01.787Z,35.22
2018-04-10T17:35:28.241Z,35.55
2018-04-10T17:37:55.048Z,35.42
2018-04-10T17:40:21.624Z,36.15
2018-04-10T17:42:48.462Z,35.92
2018-04-10T17:45:15.050Z,36.19
2018-04-10T17:47:41.558Z,36.80
2018-04-10T17:50:08.037Z,36.85
2018-04-10T17:52:35.269Z,37.17
2018-04-10T17:55:01.752Z,37.72
2018-04-10T17:57:30.495Z,37.31
2018-04-10T17:59:57.178Z,37.41
2018-04-10T18:02:23.723Z,36.52
2018-04-10T18:04:50.791Z,36.79
2018-04-10T18:07:17.404Z,37.25
2018-04-10T18:09:44.234Z,38.05
2018-04-10T18:12:10.877Z,37.34
2018-04-10T18:14:37.538Z,38.38
2018-04-10T18:17:04.056Z,37.83
2018-04-10T18:19:30.818Z,37.51
2018-04-10T18:21:57.557Z,38.27
2018-04-10T18:24:24.481Z,38.74
2018-04-10T18:26:51.697Z,38.24
2018-04-10T18:29:19.190Z,38.56
2018-04-10T18:31:46.188Z,38.66
2018-04-10T18:34:12.987Z,37.72
2018-04-10T18:36:39.522Z,38.77
2018-04-10T18:39:06.651Z,38.40
2018-04-10T18:41:33.476Z,40.84
2018-04-10T18:44:00.260Z,41.05
2018-04-10T18:46:27.183Z,38.82
2018-04-10T18:48:54.231Z,42.38
2018-04-10T18:51:21.200Z,42.04
2018-04-10T18:53:48.478Z,42.28
2018-04-10T18:56:15.093Z,43.31
2018-04-10T18:58:42.030Z,43.41
2018-04-10T19:01:10.478Z,43.91
2018-04-10T19:03:37.396Z,44.17
2018-04-10T19:06:04.071Z,43.49
2018-04-10T19:08:30.876Z,44.08
2018-04-10T19:10:58.494Z,44.97
2018-04-10T19:13:25.097Z,44.76
2018-04-10T19:15:51.620Z,46.28
2018-04-10T19:18:18.105Z,47.01
2018-04-10T19:20:45.690Z,48.12
2018-04-10T19:23:12.579Z,48.80
2018-04-10T19:25:39.228Z,49.72
2018-04-10T19:28:06.122Z,50.27
2018-04-10T19:30:33.241Z,49.49
2018-04-10T19:33:06.324Z,50.83
2018-04-10T19:35:34.381Z,48.45
2018-04-10T19:38:01.098Z,50.38
2018-04-10T19:40:27.840Z,49.62
2018-04-10T19:42:54.416Z,50.05
2018-04-10T19:45:20.959Z,50.86
2018-04-10T19:47:47.504Z,51.07
2018-04-10T19:50:14.020Z,48.47
2018-04-10T19:52:40.432Z,50.76
2018-04-10T19:55:06.980Z,51.66
2018-04-10T19:57:33.500Z,51.65
2018-04-10T20:00:00.113Z,50.86
2018-04-10T20:02:26.852Z,49.70
2018-04-10T20:04:53.561Z,50.06
2018-04-10T20:07:20.117Z,52.18
2018-04-10T20:09:46.813Z,51.92
2018-04-10T20:12:13.493Z,53.06
2018-04-10T20:14:40.884Z,53.36
2018-04-10T20:17:07.641Z,53.88
2018-04-10T20:19:34.285Z,54.12
2018-04-10T20:22:00.818Z,53.64
2018-04-10T20:24:27.380Z,53.26
2018-04-10T20:26:53.790Z,52.56
2018-04-10T20:29:20.233Z,53.22
2018-04-10T20:31:46.771Z,53.08
2018-04-10T20:34:13.180Z,53.82
2018-04-10T20:36:39.545Z,54.22
2018-04-10T20:39:06.004Z,54.41
2018-04-10T20:41:32.458Z,54.16
2018-04-10T20:43:58.956Z,53.65
2018-04-10T20:46:25.494Z,53.46
2018-04-10T20:48:51.993Z,53.98
2018-04-10T20:51:18.554Z,54.00
2018-04-10T20:53:44.928Z,53.76
2018-04-10T20:56:11.327Z,53.71
2018-04-10T20:58:37.696Z,53.53
2018-04-10T21:01:04.092Z,54.88
2018-04-10T21:03:30.477Z,53.65
2018-04-10T21:05:56.839Z,55.08
2018-04-10T21:08:23.413Z,55.24
2018-04-10T21:10:49.794Z,55.39
2018-04-10T21:13:16.226Z,56.18
2018-04-10T21:15:42.660Z,56.92
2018-04-10T21:18:09.042Z,56.88
2018-04-10T21:20:35.546Z,57.61
2018-04-10T21:23:01.941Z,57.20
2018-04-10T21:25:28.298Z,56.71
2018-04-10T21:27:54.796Z,56.29
2018-04-10T21:30:21.361Z,56.31
2018-04-10T21:32:47.759Z,57.13
2018-04-10T21:35:14.901Z,56.96
2018-04-10T21:37:41.337Z,56.67
2018-04-10T21:40:07.771Z,56.20
2018-04-10T21:42:40.245Z,55.63
2018-04-10T21:45:06.672Z,56.09
2018-04-10T21:47:33.000Z,57.73
2018-04-10T21:49:59.356Z,57.76
2018-04-10T21:52:25.846Z,57.87
2018-04-10T21:54:52.191Z,58.95
2018-04-10T21:57:18.603Z,59.96
2018-04-10T21:59:45.050Z,60.96
2018-04-10T22:02:11.430Z,60.56
2018-04-10T22:04:37.759Z,60.22
2018-04-10T22:07:04.241Z,60.88
2018-04-10T22:09:31.268Z,61.32
2018-04-10T22:11:58.285Z,59.99
2018-04-10T22:14:25.598Z,60.07
2018-04-10T22:16:53.081Z,59.48
2018-04-10T22:19:20.244Z,59.78
2018-04-10T22:21:47.264Z,59.57
2018-04-10T22:24:13.629Z,60.53
2018-04-10T22:26:40.020Z,59.10
2018-04-10T22:29:06.646Z,60.75
2018-04-10T22:31:33.132Z,62.17
2018-04-10T22:33:59.529Z,61.61
2018-04-10T22:36:25.969Z,61.65
2018-04-10T22:38:52.321Z,63.12
2018-04-10T22:41:18.987Z,62.54
2018-04-10T22:43:45.473Z,63.35
2018-04-10T22:46:11.979Z,64.61
2018-04-10T22:48:38.388Z,64.25
2018-04-10T22:51:04.887Z,65.93
2018-04-10T22:53:31.336Z,66.43
2018-04-10T22:55:57.911Z,66.09
2018-04-10T22:58:24.363Z,68.19
2018-04-10T23:00:50.740Z,69.16
2018-04-10T23:03:17.063Z,70.08
2018-04-10T23:05:43.448Z,70.05
2018-04-10T23:08:09.842Z,70.51
2018-04-10T23:10:36.467Z,72.62
2018-04-10T23:13:02.832Z,72.91
2018-04-10T23:15:30.269Z,73.07
2018-04-10T23:17:56.705Z,73.37
2018-04-10T23:20:23.277Z,71.69
2018-04-10T23:22:49.671Z,73.88
2018-04-10T23:25:16.013Z,72.10
2018-04-10T23:27:42.410Z,74.20
2018-04-10T23:30:08.808Z,74.18
2018-04-10T23:32:35.198Z,74.77
2018-04-10T23:35:01.601Z,73.82
2018-04-10T23:37:28.046Z,75.00
2018-04-10T23:39:54.551Z,74.84
2018-04-10T23:42:21.049Z,74.85
2018-04-10T23:44:47.477Z,75.43
2018-04-10T23:47:13.854Z,74.97
2018-04-10T23:49:40.903Z,74.46
2018-04-10T23:52:07.207Z,75.79
2018-04-10T23:54:33.503Z,74.85
2018-04-10T23:56:59.876Z,74.81
2018-04-10T23:59:26.162Z,75.92
